sensor_id;sensor_type;location;lat;lon;timestamp;pressure;altitude;pressure_sealevel;temperature;humidity
80424;BME280;69765;47.668;19.326;2024-01-30T00:02:43;101491.25;;;-2.36;100.00
80424;BME280;69765;47.668;19.326;2024-01-30T00:05:45;101491.94;;;-2.37;100.00
80424;BME280;69765;47.668;19.326;2024-01-30T00:08:47;101485.31;;;-2.37;99.87
80424;BME280;69765;47.668;19.326;2024-01-30T00:11:51;101490.22;;;-2.59;100.00
80424;BME280;69765;47.668;19.326;2024-01-30T00:14:53;101490.66;;;-2.67;100.00
80424;BME280;69765;47.668;19.326;2024-01-30T00:17:56;101488.34;;;-2.71;100.00
80424;BME280;69765;47.668;19.326;2024-01-30T00:20:59;101484.09;;;-2.55;100.00
80424;BME280;69765;47.668;19.326;2024-01-30T00:24:01;101489.94;;;-2.77;100.00
80424;BME280;69765;47.668;19.326;2024-01-30T00:27:03;101489.06;;;-2.67;100.00
80424;BME280;69765;47.668;19.326;2024-01-30T00:30:05;101487.66;;;-2.70;100.00
80424;BME280;69765;47.668;19.326;2024-01-30T00:33:09;101491.38;;;-2.63;99.41
80424;BME280;69765;47.668;19.326;2024-01-30T00:36:11;101484.47;;;-2.69;99.88
80424;BME280;69765;47.668;19.326;2024-01-30T00:39:13;101494.50;;;-2.69;100.00
80424;BME280;69765;47.668;19.326;2024-01-30T00:42:17;101487.66;;;-2.76;100.00
80424;BME280;69765;47.668;19.326;2024-01-30T00:45:20;101495.69;;;-2.62;100.00
80424;BME280;69765;47.668;19.326;2024-01-30T00:48:22;101493.50;;;-2.49;100.00
80424;BME280;69765;47.668;19.326;2024-01-30T00:51:24;101487.97;;;-2.58;100.00
80424;BME280;69765;47.668;19.326;2024-01-30T00:54:26;101493.00;;;-2.58;100.00
80424;BME280;69765;47.668;19.326;2024-01-30T00:57:29;101490.41;;;-2.69;100.00
80424;BME280;69765;47.668;19.326;2024-01-30T01:00:32;101491.31;;;-2.68;100.00
80424;BME280;69765;47.668;19.326;2024-01-30T01:03:34;101495.72;;;-2.56;100.00
80424;BME280;69765;47.668;19.326;2024-01-30T01:06:36;101500.47;;;-2.20;100.00
80424;BME280;69765;47.668;19.326;2024-01-30T01:09:39;101488.34;;;-2.28;100.00
80424;BME280;69765;47.668;19.326;2024-01-30T01:12:41;101494.75;;;-2.24;100.00
80424;BME280;69765;47.668;19.326;2024-01-30T01:15:44;101495.78;;;-2.45;100.00
80424;BME280;69765;47.668;19.326;2024-01-30T01:18:46;101485.25;;;-2.53;100.00
80424;BME280;69765;47.668;19.326;2024-01-30T01:21:49;101490.41;;;-2.69;100.00
80424;BME280;69765;47.668;19.326;2024-01-30T01:24:51;101488.19;;;-2.56;100.00
80424;BME280;69765;47.668;19.326;2024-01-30T01:27:53;101482.31;;;-2.45;100.00
80424;BME280;69765;47.668;19.326;2024-01-30T01:30:55;101485.16;;;-2.70;100.00
80424;BME280;69765;47.668;19.326;2024-01-30T01:34:01;101486.09;;;-2.64;100.00
80424;BME280;69765;47.668;19.326;2024-01-30T01:37:03;101485.03;;;-2.87;100.00
80424;BME280;69765;47.668;19.326;2024-01-30T01:40:06;101479.66;;;-2.73;100.00
80424;BME280;69765;47.668;19.326;2024-01-30T01:43:09;101469.81;;;-2.83;100.00
80424;BME280;69765;47.668;19.326;2024-01-30T01:46:11;101481.88;;;-2.86;100.00
80424;BME280;69765;47.668;19.326;2024-01-30T01:49:14;101476.88;;;-2.86;100.00
80424;BME280;69765;47.668;19.326;2024-01-30T01:52:17;101475.06;;;-2.81;100.00
80424;BME280;69765;47.668;19.326;2024-01-30T01:55:21;101481.16;;;-2.96;100.00
80424;BME280;69765;47.668;19.326;2024-01-30T01:58:29;101477.78;;;-2.86;99.84
80424;BME280;69765;47.668;19.326;2024-01-30T02:01:38;101472.25;;;-2.94;98.23
80424;BME280;69765;47.668;19.326;2024-01-30T02:04:43;101473.31;;;-3.09;99.15
80424;BME280;69765;47.668;19.326;2024-01-30T02:07:45;101465.22;;;-2.91;99.10
80424;BME280;69765;47.668;19.326;2024-01-30T02:10:47;101457.06;;;-2.79;95.33
80424;BME280;69765;47.668;19.326;2024-01-30T02:13:50;101465.38;;;-3.01;96.65
80424;BME280;69765;47.668;19.326;2024-01-30T02:16:52;101464.44;;;-3.01;97.21
80424;BME280;69765;47.668;19.326;2024-01-30T02:19:54;101465.81;;;-3.03;96.47
80424;BME280;69765;47.668;19.326;2024-01-30T02:22:58;101470.09;;;-3.40;97.86
80424;BME280;69765;47.668;19.326;2024-01-30T02:26:03;101476.72;;;-3.35;97.80
80424;BME280;69765;47.668;19.326;2024-01-30T02:29:05;101475.63;;;-3.31;98.53
80424;BME280;69765;47.668;19.326;2024-01-30T02:32:07;101476.47;;;-3.42;98.57
80424;BME280;69765;47.668;19.326;2024-01-30T02:35:10;101485.38;;;-3.39;98.61
80424;BME280;69765;47.668;19.326;2024-01-30T02:38:12;101471.84;;;-3.50;100.00
80424;BME280;69765;47.668;19.326;2024-01-30T02:41:14;101474.72;;;-3.58;100.00
80424;BME280;69765;47.668;19.326;2024-01-30T02:44:16;101474.25;;;-3.62;99.46
80424;BME280;69765;47.668;19.326;2024-01-30T02:47:19;101473.03;;;-3.69;100.00
80424;BME280;69765;47.668;19.326;2024-01-30T02:50:21;101478.00;;;-3.75;100.00
80424;BME280;69765;47.668;19.326;2024-01-30T02:53:23;101477.34;;;-3.68;100.00
80424;BME280;69765;47.668;19.326;2024-01-30T02:56:25;101470.03;;;-3.72;100.00
80424;BME280;69765;47.668;19.326;2024-01-30T02:59:27;101468.34;;;-3.83;100.00
80424;BME280;69765;47.668;19.326;2024-01-30T03:02:30;101471.81;;;-3.77;100.00
80424;BME280;69765;47.668;19.326;2024-01-30T03:05:32;101472.78;;;-3.92;100.00
80424;BME280;69765;47.668;19.326;2024-01-30T03:08:34;101472.78;;;-3.92;100.00
80424;BME280;69765;47.668;19.326;2024-01-30T03:11:37;101472.00;;;-3.54;100.00
80424;BME280;69765;47.668;19.326;2024-01-30T03:14:39;101468.88;;;-3.74;100.00
80424;BME280;69765;47.668;19.326;2024-01-30T03:17:41;101477.78;;;-3.44;100.00
80424;BME280;69765;47.668;19.326;2024-01-30T03:20:44;101469.41;;;-3.13;100.00
80424;BME280;69765;47.668;19.326;2024-01-30T03:23:46;101477.13;;;-3.11;100.00
80424;BME280;69765;47.668;19.326;2024-01-30T03:26:48;101475.69;;;-3.20;100.00
80424;BME280;69765;47.668;19.326;2024-01-30T03:29:50;101476.34;;;-3.27;100.00
80424;BME280;69765;47.668;19.326;2024-01-30T03:32:53;101472.63;;;-3.35;100.00
80424;BME280;69765;47.668;19.326;2024-01-30T03:35:55;101470.63;;;-3.31;100.00
80424;BME280;69765;47.668;19.326;2024-01-30T03:38:57;101473.53;;;-3.08;100.00
80424;BME280;69765;47.668;19.326;2024-01-30T03:41:59;101463.00;;;-3.11;100.00
80424;BME280;69765;47.668;19.326;2024-01-30T03:45:01;101463.13;;;-3.26;100.00
80424;BME280;69765;47.668;19.326;2024-01-30T03:48:04;101455.38;;;-3.01;100.00
80424;BME280;69765;47.668;19.326;2024-01-30T03:51:07;101454.00;;;-2.99;100.00
80424;BME280;69765;47.668;19.326;2024-01-30T03:54:09;101452.56;;;-3.08;100.00
80424;BME280;69765;47.668;19.326;2024-01-30T03:57:11;101451.09;;;-2.91;100.00
80424;BME280;69765;47.668;19.326;2024-01-30T04:00:14;101454.31;;;-3.18;100.00
80424;BME280;69765;47.668;19.326;2024-01-30T04:03:17;101447.59;;;-2.97;100.00
80424;BME280;69765;47.668;19.326;2024-01-30T04:06:19;101455.06;;;-3.08;100.00
80424;BME280;69765;47.668;19.326;2024-01-30T04:09:21;101448.44;;;-3.13;100.00
80424;BME280;69765;47.668;19.326;2024-01-30T04:12:23;101448.25;;;-3.36;100.00
80424;BME280;69765;47.668;19.326;2024-01-30T04:15:26;101453.19;;;-3.47;100.00
80424;BME280;69765;47.668;19.326;2024-01-30T04:18:29;101454.59;;;-3.43;100.00
80424;BME280;69765;47.668;19.326;2024-01-30T04:21:31;101454.34;;;-3.71;100.00
80424;BME280;69765;47.668;19.326;2024-01-30T04:24:33;101448.72;;;-3.65;100.00
80424;BME280;69765;47.668;19.326;2024-01-30T04:27:36;101450.88;;;-3.77;100.00
80424;BME280;69765;47.668;19.326;2024-01-30T04:30:38;101452.09;;;-3.70;100.00
80424;BME280;69765;47.668;19.326;2024-01-30T04:33:40;101446.63;;;-3.67;100.00
80424;BME280;69765;47.668;19.326;2024-01-30T04:36:44;101450.00;;;-3.46;100.00
80424;BME280;69765;47.668;19.326;2024-01-30T04:39:47;101449.81;;;-3.15;100.00
80424;BME280;69765;47.668;19.326;2024-01-30T04:42:49;101454.13;;;-3.14;100.00
80424;BME280;69765;47.668;19.326;2024-01-30T04:45:52;101459.47;;;-3.33;100.00
80424;BME280;69765;47.668;19.326;2024-01-30T04:48:54;101458.44;;;-3.45;100.00
80424;BME280;69765;47.668;19.326;2024-01-30T04:51:56;101465.13;;;-3.35;100.00
80424;BME280;69765;47.668;19.326;2024-01-30T04:54:59;101468.03;;;-3.43;100.00
80424;BME280;69765;47.668;19.326;2024-01-30T04:58:01;101467.13;;;-3.43;100.00
80424;BME280;69765;47.668;19.326;2024-01-30T05:01:03;101468.16;;;-3.26;100.00
80424;BME280;69765;47.668;19.326;2024-01-30T05:04:09;101477.72;;;-3.29;100.00
80424;BME280;69765;47.668;19.326;2024-01-30T05:07:15;101474.69;;;-3.38;100.00
80424;BME280;69765;47.668;19.326;2024-01-30T05:10:17;101479.38;;;-3.45;100.00
80424;BME280;69765;47.668;19.326;2024-01-30T05:13:20;101482.44;;;-3.36;100.00
80424;BME280;69765;47.668;19.326;2024-01-30T05:16:22;101483.88;;;-3.27;100.00
80424;BME280;69765;47.668;19.326;2024-01-30T05:19:26;101483.72;;;-3.17;100.00
80424;BME280;69765;47.668;19.326;2024-01-30T05:22:28;101489.41;;;-3.18;100.00
80424;BME280;69765;47.668;19.326;2024-01-30T05:25:30;101482.38;;;-3.42;100.00
80424;BME280;69765;47.668;19.326;2024-01-30T05:28:33;101496.50;;;-3.42;100.00
80424;BME280;69765;47.668;19.326;2024-01-30T05:31:35;101493.88;;;-3.27;100.00
80424;BME280;69765;47.668;19.326;2024-01-30T05:34:37;101500.84;;;-3.41;100.00
80424;BME280;69765;47.668;19.326;2024-01-30T05:37:40;101496.53;;;-3.37;100.00
80424;BME280;69765;47.668;19.326;2024-01-30T05:40:42;101501.78;;;-3.62;100.00
80424;BME280;69765;47.668;19.326;2024-01-30T05:43:44;101500.84;;;-3.41;100.00
80424;BME280;69765;47.668;19.326;2024-01-30T05:46:46;101498.38;;;-3.09;100.00
80424;BME280;69765;47.668;19.326;2024-01-30T05:49:49;101503.44;;;-2.98;100.00
80424;BME280;69765;47.668;19.326;2024-01-30T05:52:51;101495.50;;;-2.95;100.00
80424;BME280;69765;47.668;19.326;2024-01-30T05:55:53;101498.25;;;-3.20;100.00
80424;BME280;69765;47.668;19.326;2024-01-30T05:58:56;101502.84;;;-3.44;100.00
80424;BME280;69765;47.668;19.326;2024-01-30T06:01:58;101503.53;;;-3.45;100.00
80424;BME280;69765;47.668;19.326;2024-01-30T06:05:00;101506.41;;;-3.53;100.00
80424;BME280;69765;47.668;19.326;2024-01-30T06:08:03;101507.41;;;-3.68;100.00
80424;BME280;69765;47.668;19.326;2024-01-30T06:11:05;101506.84;;;-3.56;100.00
80424;BME280;69765;47.668;19.326;2024-01-30T06:14:07;101515.31;;;-3.76;100.00
80424;BME280;69765;47.668;19.326;2024-01-30T06:17:10;101506.19;;;-3.97;100.00
80424;BME280;69765;47.668;19.326;2024-01-30T06:20:13;101505.63;;;-4.05;100.00
80424;BME280;69765;47.668;19.326;2024-01-30T06:23:16;101505.72;;;-4.00;100.00
80424;BME280;69765;47.668;19.326;2024-01-30T06:26:18;101507.28;;;-4.00;100.00
80424;BME280;69765;47.668;19.326;2024-01-30T06:29:20;101498.91;;;-4.16;100.00
80424;BME280;69765;47.668;19.326;2024-01-30T06:32:23;101510.91;;;-4.04;100.00
80424;BME280;69765;47.668;19.326;2024-01-30T06:35:26;101508.75;;;-3.91;100.00
80424;BME280;69765;47.668;19.326;2024-01-30T06:38:30;101508.44;;;-3.77;100.00
80424;BME280;69765;47.668;19.326;2024-01-30T06:41:33;101507.31;;;-3.00;100.00
80424;BME280;69765;47.668;19.326;2024-01-30T06:44:35;101506.00;;;-2.06;95.50
80424;BME280;69765;47.668;19.326;2024-01-30T06:47:38;101505.22;;;-1.50;90.12
80424;BME280;69765;47.668;19.326;2024-01-30T06:50:40;101505.91;;;-1.17;90.75
80424;BME280;69765;47.668;19.326;2024-01-30T06:53:42;101495.81;;;-0.78;90.96
80424;BME280;69765;47.668;19.326;2024-01-30T06:56:44;101500.28;;;0.05;84.33
80424;BME280;69765;47.668;19.326;2024-01-30T06:59:47;101497.13;;;0.41;80.36
80424;BME280;69765;47.668;19.326;2024-01-30T07:02:49;101491.03;;;0.87;77.25
80424;BME280;69765;47.668;19.326;2024-01-30T07:05:51;101495.44;;;0.82;74.94
80424;BME280;69765;47.668;19.326;2024-01-30T07:08:53;101497.31;;;1.25;72.67
80424;BME280;69765;47.668;19.326;2024-01-30T07:11:56;101497.47;;;1.93;68.17
80424;BME280;69765;47.668;19.326;2024-01-30T07:15:00;101501.31;;;2.46;66.32
80424;BME280;69765;47.668;19.326;2024-01-30T07:18:03;101496.78;;;3.26;65.47
80424;BME280;69765;47.668;19.326;2024-01-30T07:21:06;101477.13;;;3.76;61.74
80424;BME280;69765;47.668;19.326;2024-01-30T07:24:09;101487.84;;;4.73;59.30
80424;BME280;69765;47.668;19.326;2024-01-30T07:27:11;101486.56;;;5.23;57.23
80424;BME280;69765;47.668;19.326;2024-01-30T07:30:13;101480.28;;;5.75;55.61
80424;BME280;69765;47.668;19.326;2024-01-30T07:33:16;101477.91;;;6.68;52.54
80424;BME280;69765;47.668;19.326;2024-01-30T07:36:18;101483.25;;;7.80;49.64
80424;BME280;69765;47.668;19.326;2024-01-30T07:39:20;101471.66;;;8.05;48.94
80424;BME280;69765;47.668;19.326;2024-01-30T07:42:23;101473.81;;;8.32;48.96
80424;BME280;69765;47.668;19.326;2024-01-30T07:45:26;101473.56;;;8.90;46.54
80424;BME280;69765;47.668;19.326;2024-01-30T07:48:29;101480.94;;;8.34;48.94
80424;BME280;69765;47.668;19.326;2024-01-30T07:51:31;101470.13;;;10.34;44.33
80424;BME280;69765;47.668;19.326;2024-01-30T07:54:35;101472.25;;;10.62;43.23
80424;BME280;69765;47.668;19.326;2024-01-30T07:57:56;101469.72;;;10.71;42.82
80424;BME280;69765;47.668;19.326;2024-01-30T08:00:58;101465.81;;;11.34;42.06
80424;BME280;69765;47.668;19.326;2024-01-30T08:04:03;101456.75;;;11.81;41.04
80424;BME280;69765;47.668;19.326;2024-01-30T08:07:05;101465.72;;;11.67;41.55
80424;BME280;69765;47.668;19.326;2024-01-30T08:10:08;101464.31;;;11.27;42.35
80424;BME280;69765;47.668;19.326;2024-01-30T08:13:10;101462.84;;;11.72;42.92
80424;BME280;69765;47.668;19.326;2024-01-30T08:16:13;101469.13;;;11.33;41.98
80424;BME280;69765;47.668;19.326;2024-01-30T08:19:16;101469.56;;;11.29;43.07
80424;BME280;69765;47.668;19.326;2024-01-30T08:22:18;101460.84;;;11.78;42.79
80424;BME280;69765;47.668;19.326;2024-01-30T08:25:21;101468.13;;;12.00;43.23
80424;BME280;69765;47.668;19.326;2024-01-30T08:28:24;101468.09;;;12.17;41.60
80424;BME280;69765;47.668;19.326;2024-01-30T08:31:26;101471.34;;;12.87;40.77
80424;BME280;69765;47.668;19.326;2024-01-30T08:34:29;101469.81;;;13.44;38.65
80424;BME280;69765;47.668;19.326;2024-01-30T08:37:31;101471.16;;;12.94;39.15
80424;BME280;69765;47.668;19.326;2024-01-30T08:40:35;101476.19;;;13.12;40.27
80424;BME280;69765;47.668;19.326;2024-01-30T08:43:37;101468.13;;;13.64;40.06
80424;BME280;69765;47.668;19.326;2024-01-30T08:46:40;101465.00;;;13.58;38.44
80424;BME280;69765;47.668;19.326;2024-01-30T08:49:43;101465.31;;;14.67;36.50
80424;BME280;69765;47.668;19.326;2024-01-30T08:52:46;101461.66;;;15.24;36.41
80424;BME280;69765;47.668;19.326;2024-01-30T08:55:49;101464.09;;;15.64;35.86
80424;BME280;69765;47.668;19.326;2024-01-30T08:58:52;101469.00;;;14.50;36.94
80424;BME280;69765;47.668;19.326;2024-01-30T09:01:54;101458.19;;;16.07;34.99
80424;BME280;69765;47.668;19.326;2024-01-30T09:05:12;101460.31;;;15.80;34.38
80424;BME280;69765;47.668;19.326;2024-01-30T09:08:15;101454.28;;;15.19;35.66
80424;BME280;69765;47.668;19.326;2024-01-30T09:11:18;101453.59;;;15.52;35.64
80424;BME280;69765;47.668;19.326;2024-01-30T09:14:20;101448.22;;;15.49;35.46
80424;BME280;69765;47.668;19.326;2024-01-30T09:17:22;101449.88;;;16.65;33.14
80424;BME280;69765;47.668;19.326;2024-01-30T09:20:25;101446.75;;;16.47;33.93
80424;BME280;69765;47.668;19.326;2024-01-30T09:23:34;101448.19;;;16.76;33.21
80424;BME280;69765;47.668;19.326;2024-01-30T09:26:36;101440.38;;;15.90;34.86
80424;BME280;69765;47.668;19.326;2024-01-30T09:29:38;101443.13;;;15.60;34.83
80424;BME280;69765;47.668;19.326;2024-01-30T09:32:41;101442.03;;;15.99;35.13
80424;BME280;69765;47.668;19.326;2024-01-30T09:35:44;101448.31;;;16.67;33.97
80424;BME280;69765;47.668;19.326;2024-01-30T09:38:46;101441.06;;;17.64;31.84
80424;BME280;69765;47.668;19.326;2024-01-30T09:41:55;101444.88;;;17.00;32.43
80424;BME280;69765;47.668;19.326;2024-01-30T09:45:03;101444.53;;;16.96;33.35
80424;BME280;69765;47.668;19.326;2024-01-30T09:48:06;101438.28;;;17.96;31.92
80424;BME280;69765;47.668;19.326;2024-01-30T09:51:09;101435.50;;;17.36;31.70
80424;BME280;69765;47.668;19.326;2024-01-30T09:54:14;101436.03;;;17.77;32.00
80424;BME280;69765;47.668;19.326;2024-01-30T09:57:16;101439.13;;;18.44;31.31
80424;BME280;69765;47.668;19.326;2024-01-30T10:00:18;101437.41;;;18.93;29.91
80424;BME280;69765;47.668;19.326;2024-01-30T10:03:21;101442.44;;;18.78;30.21
80424;BME280;69765;47.668;19.326;2024-01-30T10:06:24;101436.13;;;18.99;31.04
80424;BME280;69765;47.668;19.326;2024-01-30T10:09:26;101439.91;;;18.54;30.89
80424;BME280;69765;47.668;19.326;2024-01-30T10:12:29;101435.81;;;19.20;28.98
80424;BME280;69765;47.668;19.326;2024-01-30T10:15:34;101436.94;;;18.73;30.17
80424;BME280;69765;47.668;19.326;2024-01-30T10:18:37;101435.53;;;17.48;32.22
80424;BME280;69765;47.668;19.326;2024-01-30T10:21:42;101439.03;;;16.59;33.53
80424;BME280;69765;47.668;19.326;2024-01-30T10:24:44;101431.91;;;17.34;32.92
80424;BME280;69765;47.668;19.326;2024-01-30T10:27:52;101430.41;;;15.01;36.13
80424;BME280;69765;47.668;19.326;2024-01-30T10:31:01;101420.91;;;16.15;34.68
80424;BME280;69765;47.668;19.326;2024-01-30T10:34:08;101417.63;;;17.39;32.27
80424;BME280;69765;47.668;19.326;2024-01-30T10:37:25;101404.06;;;18.99;31.00
80424;BME280;69765;47.668;19.326;2024-01-30T10:40:28;101404.66;;;19.46;28.73
80424;BME280;69765;47.668;19.326;2024-01-30T10:43:35;101398.66;;;18.71;30.87
80424;BME280;69765;47.668;19.326;2024-01-30T10:46:38;101402.91;;;17.85;32.02
80424;BME280;69765;47.668;19.326;2024-01-30T10:49:42;101391.88;;;18.36;31.76
80424;BME280;69765;47.668;19.326;2024-01-30T10:52:45;101379.88;;;18.50;32.20
80424;BME280;69765;47.668;19.326;2024-01-30T10:55:50;101383.22;;;18.49;30.61
80424;BME280;69765;47.668;19.326;2024-01-30T10:58:53;101377.94;;;17.40;31.62
80424;BME280;69765;47.668;19.326;2024-01-30T11:01:57;101386.63;;;15.96;33.42
80424;BME280;69765;47.668;19.326;2024-01-30T11:05:00;101381.94;;;17.94;31.61
80424;BME280;69765;47.668;19.326;2024-01-30T11:08:13;101372.09;;;18.38;30.33
80424;BME280;69765;47.668;19.326;2024-01-30T11:11:16;101362.19;;;18.94;30.33
80424;BME280;69765;47.668;19.326;2024-01-30T11:14:23;101365.78;;;18.46;30.41
80424;BME280;69765;47.668;19.326;2024-01-30T11:17:40;101364.69;;;17.82;29.68
80424;BME280;69765;47.668;19.326;2024-01-30T11:20:46;101369.19;;;18.33;31.05
80424;BME280;69765;47.668;19.326;2024-01-30T11:23:49;101359.50;;;17.71;31.83
80424;BME280;69765;47.668;19.326;2024-01-30T11:26:58;101363.28;;;16.50;34.26
80424;BME280;69765;47.668;19.326;2024-01-30T11:30:02;101356.69;;;16.87;34.43
80424;BME280;69765;47.668;19.326;2024-01-30T11:33:12;101356.06;;;16.90;34.09
80424;BME280;69765;47.668;19.326;2024-01-30T11:36:15;101349.44;;;17.40;33.60
80424;BME280;69765;47.668;19.326;2024-01-30T11:39:19;101353.50;;;16.02;35.60
80424;BME280;69765;47.668;19.326;2024-01-30T11:42:23;101348.53;;;17.16;33.98
80424;BME280;69765;47.668;19.326;2024-01-30T11:45:27;101352.34;;;15.56;32.84
80424;BME280;69765;47.668;19.326;2024-01-30T11:48:29;101332.69;;;16.44;33.81
80424;BME280;69765;47.668;19.326;2024-01-30T11:51:32;101344.16;;;17.15;34.81
80424;BME280;69765;47.668;19.326;2024-01-30T11:54:34;101328.78;;;16.83;34.81
80424;BME280;69765;47.668;19.326;2024-01-30T11:57:36;101334.19;;;16.98;32.53
80424;BME280;69765;47.668;19.326;2024-01-30T12:00:39;101332.63;;;14.34;35.75
80424;BME280;69765;47.668;19.326;2024-01-30T12:03:41;101331.09;;;14.36;36.57
80424;BME280;69765;47.668;19.326;2024-01-30T12:06:43;101319.53;;;15.13;36.99
80424;BME280;69765;47.668;19.326;2024-01-30T12:09:55;101327.47;;;14.34;37.57
80424;BME280;69765;47.668;19.326;2024-01-30T12:12:58;101328.34;;;13.08;40.37
80424;BME280;69765;47.668;19.326;2024-01-30T12:16:01;101308.88;;;14.77;37.69
80424;BME280;69765;47.668;19.326;2024-01-30T12:19:04;101314.16;;;14.59;38.45
80424;BME280;69765;47.668;19.326;2024-01-30T12:22:06;101303.69;;;14.88;38.42
80424;BME280;69765;47.668;19.326;2024-01-30T12:25:10;101306.16;;;15.81;35.16
80424;BME280;69765;47.668;19.326;2024-01-30T12:28:13;101299.66;;;13.80;35.37
80424;BME280;69765;47.668;19.326;2024-01-30T12:31:16;101308.03;;;12.18;39.43
80424;BME280;69765;47.668;19.326;2024-01-30T12:34:18;101306.91;;;11.18;41.84
80424;BME280;69765;47.668;19.326;2024-01-30T12:37:23;101303.56;;;12.62;39.04
80424;BME280;69765;47.668;19.326;2024-01-30T12:40:27;101308.41;;;12.59;38.71
80424;BME280;69765;47.668;19.326;2024-01-30T12:43:29;101304.91;;;11.33;41.58
80424;BME280;69765;47.668;19.326;2024-01-30T12:46:39;101303.94;;;12.75;39.44
80424;BME280;69765;47.668;19.326;2024-01-30T12:49:43;101289.66;;;12.79;37.97
80424;BME280;69765;47.668;19.326;2024-01-30T12:52:46;101303.28;;;12.32;38.14
80424;BME280;69765;47.668;19.326;2024-01-30T12:55:51;101303.00;;;12.28;40.33
80424;BME280;69765;47.668;19.326;2024-01-30T12:58:53;101304.16;;;10.82;40.82
80424;BME280;69765;47.668;19.326;2024-01-30T13:01:58;101297.22;;;11.33;40.64
80424;BME280;69765;47.668;19.326;2024-01-30T13:05:02;101303.41;;;10.91;41.20
80424;BME280;69765;47.668;19.326;2024-01-30T13:08:05;101306.66;;;9.72;44.42
80424;BME280;69765;47.668;19.326;2024-01-30T13:11:07;101308.09;;;8.49;47.35
80424;BME280;69765;47.668;19.326;2024-01-30T13:14:19;101305.78;;;7.98;49.63
80424;BME280;69765;47.668;19.326;2024-01-30T13:17:21;101301.28;;;7.05;53.17
80424;BME280;69765;47.668;19.326;2024-01-30T13:20:23;101300.25;;;6.96;53.84
80424;BME280;69765;47.668;19.326;2024-01-30T13:23:26;101294.56;;;7.05;53.78
80424;BME280;69765;47.668;19.326;2024-01-30T13:26:28;101297.00;;;6.89;54.96
80424;BME280;69765;47.668;19.326;2024-01-30T13:29:30;101298.50;;;6.80;55.02
80424;BME280;69765;47.668;19.326;2024-01-30T13:32:32;101306.94;;;6.65;55.02
80424;BME280;69765;47.668;19.326;2024-01-30T13:35:35;101305.53;;;6.38;55.63
80424;BME280;69765;47.668;19.326;2024-01-30T13:38:37;101302.56;;;6.57;56.34
80424;BME280;69765;47.668;19.326;2024-01-30T13:41:41;101300.66;;;6.19;57.01
80424;BME280;69765;47.668;19.326;2024-01-30T13:44:44;101303.88;;;6.39;57.18
80424;BME280;69765;47.668;19.326;2024-01-30T13:47:46;101296.09;;;6.37;56.72
80424;BME280;69765;47.668;19.326;2024-01-30T13:50:48;101295.88;;;6.43;56.54
80424;BME280;69765;47.668;19.326;2024-01-30T13:53:52;101295.38;;;6.31;58.42
80424;BME280;69765;47.668;19.326;2024-01-30T13:56:54;101300.28;;;6.23;57.87
80424;BME280;69765;47.668;19.326;2024-01-30T13:59:56;101302.25;;;5.82;58.80
80424;BME280;69765;47.668;19.326;2024-01-30T14:02:59;101299.72;;;5.61;59.64
80424;BME280;69765;47.668;19.326;2024-01-30T14:06:02;101297.94;;;5.74;59.84
80424;BME280;69765;47.668;19.326;2024-01-30T14:09:04;101299.19;;;5.71;59.71
80424;BME280;69765;47.668;19.326;2024-01-30T14:12:10;101294.81;;;5.77;60.12
80424;BME280;69765;47.668;19.326;2024-01-30T14:15:12;101299.88;;;5.48;60.61
80424;BME280;69765;47.668;19.326;2024-01-30T14:18:28;101295.72;;;5.56;60.83
80424;BME280;69765;47.668;19.326;2024-01-30T14:21:30;101292.41;;;5.35;61.63
80424;BME280;69765;47.668;19.326;2024-01-30T14:24:33;101292.75;;;5.24;62.33
80424;BME280;69765;47.668;19.326;2024-01-30T14:27:35;101289.31;;;5.31;62.55
80424;BME280;69765;47.668;19.326;2024-01-30T14:30:37;101288.19;;;5.15;63.34
80424;BME280;69765;47.668;19.326;2024-01-30T14:33:40;101286.75;;;5.24;63.67
80424;BME280;69765;47.668;19.326;2024-01-30T14:36:42;101280.94;;;5.18;64.08
80424;BME280;69765;47.668;19.326;2024-01-30T14:39:44;101285.66;;;5.22;64.13
80424;BME280;69765;47.668;19.326;2024-01-30T14:42:47;101288.19;;;5.22;63.95
80424;BME280;69765;47.668;19.326;2024-01-30T14:45:49;101286.56;;;5.15;64.29
80424;BME280;69765;47.668;19.326;2024-01-30T14:48:54;101285.78;;;5.02;65.36
80424;BME280;69765;47.668;19.326;2024-01-30T14:51:56;101285.78;;;4.95;66.09
80424;BME280;69765;47.668;19.326;2024-01-30T14:55:00;101289.69;;;4.78;68.45
80424;BME280;69765;47.668;19.326;2024-01-30T14:58:03;101290.81;;;4.80;69.17
80424;BME280;69765;47.668;19.326;2024-01-30T15:01:06;101292.97;;;4.84;70.58
80424;BME280;69765;47.668;19.326;2024-01-30T15:04:09;101291.44;;;4.65;71.10
80424;BME280;69765;47.668;19.326;2024-01-30T15:07:11;101287.25;;;4.58;72.79
80424;BME280;69765;47.668;19.326;2024-01-30T15:10:22;101286.34;;;4.31;73.98
80424;BME280;69765;47.668;19.326;2024-01-30T15:13:25;101283.47;;;4.08;75.75
80424;BME280;69765;47.668;19.326;2024-01-30T15:16:27;101293.25;;;4.05;75.18
80424;BME280;69765;47.668;19.326;2024-01-30T15:19:30;101290.06;;;3.93;76.69
80424;BME280;69765;47.668;19.326;2024-01-30T15:22:32;101288.97;;;3.71;78.55
80424;BME280;69765;47.668;19.326;2024-01-30T15:25:35;101291.16;;;3.68;78.64
80424;BME280;69765;47.668;19.326;2024-01-30T15:28:38;101297.16;;;3.76;79.31
80424;BME280;69765;47.668;19.326;2024-01-30T15:31:41;101292.28;;;3.38;81.51
80424;BME280;69765;47.668;19.326;2024-01-30T15:34:43;101303.72;;;3.41;81.47
80424;BME280;69765;47.668;19.326;2024-01-30T15:37:46;101289.25;;;3.40;81.39
80424;BME280;69765;47.668;19.326;2024-01-30T15:40:48;101291.81;;;3.27;82.44
80424;BME280;69765;47.668;19.326;2024-01-30T15:43:51;101290.78;;;3.32;82.64